Time;durP1;ratioP1;P1;durP2;ratioP2;P2;SDS_P1;SDS_P2;PMS_P1;PMS_P2;Temp;Humidity;BMP_temperature;BMP_pressure;BME280_temperature;BME280_humidity;BME280_pressure;Samples;Min_cycle;Max_cycle;Signal;HPM_P1;HPM_P2
2022/10/17 00:00:03;;;;;;;;;;;12.70;99.90;;;;;;5040891;28;20361;-80
2022/10/17 00:02:30;;;;;;;;;;;12.80;99.90;;;;;;5044924;28;19925;-80
2022/10/17 00:04:58;;;;;;;;;;;12.80;99.90;;;;;;5038352;28;20353;-81
2022/10/17 00:07:24;;;;;;;;;;;12.80;99.90;;;;;;5043725;28;19948;-80
2022/10/17 00:09:49;;;;;;;;;;;12.80;99.90;;;;;;5041860;28;19941;-78
2022/10/17 00:12:15;;;;;;;;;;;12.80;99.90;;;;;;5040628;28;19929;-79
2022/10/17 00:14:40;;;;;;;;;;;12.90;99.90;;;;;;5042096;28;19925;-80
2022/10/17 00:17:06;;;;;;;;;;;12.90;99.90;;;;;;5043348;28;19931;-80
2022/10/17 00:19:32;;;;;;;;;;;13.00;99.90;;;;;;5044253;28;19928;-80
2022/10/17 00:21:57;;;;;;;;;;;13.10;99.90;;;;;;5046643;28;20002;-78
2022/10/17 00:24:23;;;;;;;;;;;13.00;99.90;;;;;;5045784;28;19956;-81
2022/10/17 00:26:48;;;;;;;;;;;13.00;99.90;;;;;;5039031;28;19932;-80
2022/10/17 00:29:17;;;;;;;;;;;13.10;99.90;;;;;;5043329;28;19933;-80
2022/10/17 00:31:42;;;;;;;;;;;13.10;99.90;;;;;;5044343;28;20368;-80
2022/10/17 00:34:08;;;;;;;;;;;13.10;99.90;;;;;;5039682;28;19932;-79
2022/10/17 00:36:33;;;;;;;;;;;13.00;99.90;;;;;;5072795;28;19932;-80
2022/10/17 00:38:59;;;;;;;;;;;13.40;99.90;;;;;;5040184;28;19926;-79
2022/10/17 00:41:29;;;;;;;;;;;13.00;99.90;;;;;;5040973;28;19972;-79
2022/10/17 00:44:00;;;;;;;;;;;12.90;99.90;;;;;;5040147;28;19929;-79
2022/10/17 00:46:27;;;;;;;;;;;12.90;99.90;;;;;;5043403;28;20380;-79
2022/10/17 00:48:53;;;;;;;;;;;12.90;99.90;;;;;;5039558;28;19925;-79
2022/10/17 00:51:21;;;;;;;;;;;13.00;99.90;;;;;;5038450;28;19925;-79
2022/10/17 00:53:47;;;;;;;;;;;13.00;99.90;;;;;;5043565;28;20003;-80
2022/10/17 00:56:13;;;;;;;;;;;13.10;99.90;;;;;;5040150;28;20012;-80
2022/10/17 00:58:39;;;;;;;;;;;13.10;99.90;;;;;;5040570;28;19929;-80
2022/10/17 01:01:05;;;;;;;;;;;13.10;99.90;;;;;;5040831;28;19986;-80
2022/10/17 01:03:31;;;;;;;;;;;13.20;99.90;;;;;;5041515;28;19940;-80
2022/10/17 01:05:56;;;;;;;;;;;13.20;99.90;;;;;;5040587;28;20439;-80
2022/10/17 01:08:22;;;;;;;;;;;13.30;99.90;;;;;;5041290;28;19929;-80
2022/10/17 01:10:48;;;;;;;;;;;13.30;99.90;;;;;;5039747;28;19932;-79
2022/10/17 01:13:20;;;;;;;;;;;13.30;99.90;;;;;;5043106;28;19939;-78
2022/10/17 01:16:24;;;;;;;;;;;13.30;99.90;;;;;;5039278;28;19935;-79
2022/10/17 01:18:52;;;;;;;;;;;13.40;99.90;;;;;;5017978;28;19993;-80
2022/10/17 01:21:36;;;;;;;;;;;13.40;99.90;;;;;;5020973;28;20020;-80
2022/10/17 01:24:01;;;;;;;;;;;13.40;99.90;;;;;;5023528;28;19972;-80
2022/10/17 01:26:38;;;;;;;;;;;13.40;99.90;;;;;;5042277;28;19967;-79
2022/10/17 01:29:23;;;;;;;;;;;13.40;99.90;;;;;;5043949;28;20277;-80
2022/10/17 01:31:58;;;;;;;;;;;13.40;99.90;;;;;;5043346;28;19983;-79
2022/10/17 01:34:26;;;;;;;;;;;13.30;99.90;;;;;;5041045;28;19925;-79
2022/10/17 01:36:58;;;;;;;;;;;13.30;99.90;;;;;;5043171;28;19925;-79
2022/10/17 01:39:35;;;;;;;;;;;13.30;99.90;;;;;;5040922;28;19948;-80
2022/10/17 01:42:05;;;;;;;;;;;13.30;99.90;;;;;;5039262;28;19925;-79
2022/10/17 01:44:36;;;;;;;;;;;13.30;99.90;;;;;;5039869;28;19932;-79
2022/10/17 01:47:06;;;;;;;;;;;13.30;99.90;;;;;;5042360;28;19925;-78
2022/10/17 01:49:33;;;;;;;;;;;13.30;99.90;;;;;;5040618;28;19925;-79
2022/10/17 01:52:05;;;;;;;;;;;13.30;99.90;;;;;;5041913;28;19925;-80
2022/10/17 01:54:36;;;;;;;;;;;13.20;99.90;;;;;;5043544;28;19932;-80
2022/10/17 01:57:04;;;;;;;;;;;13.20;99.90;;;;;;5047492;28;20372;-80
2022/10/17 01:59:34;;;;;;;;;;;13.20;99.90;;;;;;5044478;28;19976;-80
2022/10/17 02:02:00;;;;;;;;;;;13.20;99.90;;;;;;5041269;28;19991;-80
2022/10/17 02:04:26;;;;;;;;;;;13.20;99.90;;;;;;5045127;28;19928;-80
2022/10/17 02:06:52;;;;;;;;;;;13.20;99.90;;;;;;5044671;28;20463;-80
2022/10/17 02:09:24;;;;;;;;;;;13.10;99.90;;;;;;5043720;28;19929;-81
2022/10/17 02:12:07;;;;;;;;;;;13.10;99.90;;;;;;5044951;28;20380;-80
2022/10/17 02:14:32;;;;;;;;;;;13.10;99.90;;;;;;5041785;28;20270;-80
2022/10/17 02:17:01;;;;;;;;;;;13.00;99.90;;;;;;5046964;28;20015;-80
2022/10/17 02:19:32;;;;;;;;;;;13.00;99.90;;;;;;5043004;28;20292;-80
2022/10/17 02:22:16;;;;;;;;;;;13.00;99.90;;;;;;5043532;28;20389;-80
2022/10/17 02:24:42;;;;;;;;;;;13.00;99.90;;;;;;5045378;28;20003;-80
2022/10/17 02:27:11;;;;;;;;;;;13.00;99.90;;;;;;5043134;28;21408;-80
2022/10/17 02:29:58;;;;;;;;;;;13.00;99.90;;;;;;5045774;28;20390;-80
2022/10/17 02:32:30;;;;;;;;;;;13.00;99.90;;;;;;5046226;28;19932;-81
2022/10/17 02:34:57;;;;;;;;;;;13.00;99.90;;;;;;5043979;28;19929;-80
2022/10/17 02:37:27;;;;;;;;;;;13.00;99.90;;;;;;5043387;28;19925;-80
2022/10/17 02:39:54;;;;;;;;;;;13.00;99.90;;;;;;5044065;28;19932;-80
2022/10/17 02:42:20;;;;;;;;;;;12.90;99.90;;;;;;5044072;28;19964;-80
2022/10/17 02:44:46;;;;;;;;;;;13.00;99.90;;;;;;5042728;28;19975;-80
2022/10/17 02:47:17;;;;;;;;;;;12.90;99.90;;;;;;5042887;28;19940;-80
2022/10/17 02:49:46;;;;;;;;;;;13.00;99.90;;;;;;5043048;28;19974;-80
2022/10/17 02:52:14;;;;;;;;;;;13.00;99.90;;;;;;5041627;28;20020;-80
2022/10/17 02:54:49;;;;;;;;;;;13.00;99.90;;;;;;5043448;28;19924;-79
2022/10/17 02:57:26;;;;;;;;;;;12.90;99.90;;;;;;5043909;28;20016;-79
2022/10/17 02:59:52;;;;;;;;;;;13.00;99.90;;;;;;5040787;28;19932;-80
2022/10/17 03:02:18;;;;;;;;;;;13.00;99.90;;;;;;5040223;28;19925;-80
2022/10/17 03:04:44;;;;;;;;;;;13.00;99.90;;;;;;5042310;28;19931;-80
2022/10/17 03:07:10;;;;;;;;;;;13.00;99.90;;;;;;5043905;28;19921;-80
2022/10/17 03:09:35;;;;;;;;;;;13.60;99.90;;;;;;5044566;28;19929;-80
2022/10/17 03:12:01;;;;;;;;;;;13.10;99.90;;;;;;5060567;28;20024;-79
2022/10/17 03:14:29;;;;;;;;;;;13.00;99.90;;;;;;5044725;28;19973;-79
2022/10/17 03:16:55;;;;;;;;;;;13.10;99.90;;;;;;5043426;28;19960;-79
2022/10/17 03:19:20;;;;;;;;;;;13.10;99.90;;;;;;5040622;28;19970;-79
2022/10/17 03:21:46;;;;;;;;;;;13.10;99.90;;;;;;5042346;28;20377;-80
2022/10/17 03:24:11;;;;;;;;;;;13.10;99.90;;;;;;5042099;28;20404;-79
2022/10/17 03:26:37;;;;;;;;;;;13.10;99.90;;;;;;5042066;28;20015;-79
2022/10/17 03:29:02;;;;;;;;;;;13.10;99.90;;;;;;5041699;28;19929;-79
2022/10/17 03:31:28;;;;;;;;;;;13.10;99.90;;;;;;5040325;28;19921;-79
2022/10/17 03:33:53;;;;;;;;;;;13.10;99.90;;;;;;5044456;28;19978;-79
2022/10/17 03:36:19;;;;;;;;;;;13.10;99.90;;;;;;5038899;28;19925;-79
2022/10/17 03:38:45;;;;;;;;;;;13.20;99.90;;;;;;5042857;28;20049;-79
2022/10/17 03:41:11;;;;;;;;;;;13.20;99.90;;;;;;5042171;28;20003;-79
2022/10/17 03:43:36;;;;;;;;;;;13.20;99.90;;;;;;5044945;28;19929;-79
2022/10/17 03:46:02;;;;;;;;;;;13.20;99.90;;;;;;5046028;28;19964;-76
2022/10/17 03:48:28;;;;;;;;;;;13.20;99.90;;;;;;5040548;28;19928;-77
2022/10/17 03:51:01;;;;;;;;;;;13.10;99.90;;;;;;5038384;28;19925;-77
2022/10/17 03:53:27;;;;;;;;;;;13.10;99.90;;;;;;5044466;28;20281;-76
2022/10/17 03:55:53;;;;;;;;;;;13.00;99.90;;;;;;5039582;28;19925;-77
2022/10/17 03:58:21;;;;;;;;;;;13.00;99.90;;;;;;5043176;28;19932;-76
2022/10/17 04:00:47;;;;;;;;;;;13.10;99.90;;;;;;5041106;28;19932;-77
2022/10/17 04:03:12;;;;;;;;;;;13.10;99.90;;;;;;5039602;28;19933;-77
2022/10/17 04:05:38;;;;;;;;;;;13.00;99.90;;;;;;5042183;28;19925;-75
2022/10/17 04:08:04;;;;;;;;;;;13.10;99.90;;;;;;5042178;28;20387;-77
2022/10/17 04:10:29;;;;;;;;;;;13.10;99.90;;;;;;5042368;28;19933;-77
2022/10/17 04:12:55;;;;;;;;;;;13.00;99.90;;;;;;5041245;28;19929;-76
2022/10/17 04:15:24;;;;;;;;;;;13.10;99.90;;;;;;5040312;28;19931;-77
2022/10/17 04:17:49;;;;;;;;;;;13.10;99.90;;;;;;5042915;28;19975;-77
2022/10/17 04:20:15;;;;;;;;;;;13.10;99.90;;;;;;5039485;28;20418;-77
2022/10/17 04:22:40;;;;;;;;;;;13.10;99.90;;;;;;5043131;28;19931;-77
2022/10/17 04:25:06;;;;;;;;;;;13.10;99.90;;;;;;5040701;28;20335;-77
2022/10/17 04:27:31;;;;;;;;;;;13.00;99.90;;;;;;5040280;28;19921;-78
2022/10/17 04:29:57;;;;;;;;;;;13.10;99.90;;;;;;5042348;28;20238;-77
2022/10/17 04:32:24;;;;;;;;;;;13.20;99.90;;;;;;5038939;28;19932;-77
2022/10/17 04:34:50;;;;;;;;;;;13.20;99.90;;;;;;5044379;28;19979;-77
2022/10/17 04:37:15;;;;;;;;;;;13.30;99.90;;;;;;5042603;28;20266;-77
2022/10/17 04:39:41;;;;;;;;;;;13.40;99.90;;;;;;5039329;28;19925;-76
2022/10/17 04:42:06;;;;;;;;;;;13.40;99.90;;;;;;5042470;28;19961;-76
2022/10/17 04:44:32;;;;;;;;;;;13.40;99.90;;;;;;5042831;28;20012;-76
2022/10/17 04:46:58;;;;;;;;;;;13.50;99.90;;;;;;5040185;28;20345;-77
2022/10/17 04:49:23;;;;;;;;;;;13.50;99.90;;;;;;5041055;28;20004;-77
2022/10/17 04:51:52;;;;;;;;;;;13.50;99.90;;;;;;5041415;28;19921;-77
2022/10/17 04:54:18;;;;;;;;;;;13.50;99.90;;;;;;5057933;28;19979;-78
2022/10/17 04:56:47;;;;;;;;;;;13.60;99.90;;;;;;5040922;28;19925;-76
2022/10/17 04:59:12;;;;;;;;;;;13.60;99.90;;;;;;5040136;28;19925;-77
2022/10/17 05:01:38;;;;;;;;;;;13.70;99.90;;;;;;5043034;28;20375;-76
2022/10/17 05:04:03;;;;;;;;;;;13.70;99.90;;;;;;5042392;28;19967;-77
2022/10/17 05:06:30;;;;;;;;;;;13.60;99.90;;;;;;5039473;28;19932;-76
2022/10/17 05:08:56;;;;;;;;;;;13.70;99.90;;;;;;5040799;28;20380;-76
2022/10/17 05:11:23;;;;;;;;;;;13.70;99.90;;;;;;5040217;28;19932;-77
2022/10/17 05:13:53;;;;;;;;;;;13.70;99.90;;;;;;5042467;28;19925;-76
2022/10/17 05:16:18;;;;;;;;;;;13.80;99.90;;;;;;5039245;28;19929;-77
2022/10/17 05:18:46;;;;;;;;;;;13.90;99.90;;;;;;5042069;28;19932;-76
2022/10/17 05:21:12;;;;;;;;;;;14.00;99.90;;;;;;5040139;28;19928;-76
2022/10/17 05:23:37;;;;;;;;;;;14.00;99.90;;;;;;5041515;28;19924;-77
2022/10/17 05:26:03;;;;;;;;;;;14.00;99.90;;;;;;5043819;28;19932;-78
2022/10/17 05:28:28;;;;;;;;;;;14.10;99.90;;;;;;5044658;28;19924;-78
2022/10/17 05:30:54;;;;;;;;;;;14.20;99.90;;;;;;5043945;28;19925;-79
2022/10/17 05:33:19;;;;;;;;;;;14.00;99.90;;;;;;5044679;28;19932;-76
2022/10/17 05:35:45;;;;;;;;;;;14.10;99.90;;;;;;5044115;28;19925;-77
2022/10/17 05:38:13;;;;;;;;;;;14.10;99.90;;;;;;5046256;28;20372;-78
2022/10/17 05:40:39;;;;;;;;;;;14.20;99.90;;;;;;5043571;28;19932;-79
2022/10/17 05:43:07;;;;;;;;;;;14.20;99.90;;;;;;5045782;28;19925;-79
2022/10/17 05:45:32;;;;;;;;;;;14.20;99.90;;;;;;5043727;28;19925;-79
2022/10/17 05:47:58;;;;;;;;;;;14.10;99.90;;;;;;5041710;28;20339;-78
2022/10/17 05:50:24;;;;;;;;;;;14.20;99.90;;;;;;5043821;28;20266;-78
2022/10/17 05:52:53;;;;;;;;;;;14.20;99.90;;;;;;5044300;28;20399;-79
2022/10/17 05:55:19;;;;;;;;;;;14.20;99.90;;;;;;5046528;28;20087;-78
2022/10/17 05:57:44;;;;;;;;;;;14.20;99.90;;;;;;5042680;28;20389;-79
2022/10/17 06:00:10;;;;;;;;;;;14.20;99.90;;;;;;5045189;28;20039;-78
2022/10/17 06:02:36;;;;;;;;;;;14.30;99.90;;;;;;5041788;28;20027;-79
2022/10/17 06:05:01;;;;;;;;;;;14.20;99.90;;;;;;5044954;28;19932;-78
2022/10/17 06:07:27;;;;;;;;;;;14.20;99.90;;;;;;5043000;28;19932;-77
2022/10/17 06:09:52;;;;;;;;;;;14.30;99.90;;;;;;5044420;28;20388;-79
2022/10/17 06:12:18;;;;;;;;;;;14.20;99.90;;;;;;5044146;28;19925;-83
2022/10/17 06:14:43;;;;;;;;;;;14.10;99.90;;;;;;5047003;28;20007;-84
2022/10/17 06:17:09;;;;;;;;;;;14.10;99.90;;;;;;5046300;28;20435;-78
2022/10/17 06:19:35;;;;;;;;;;;14.10;99.90;;;;;;5065638;28;20373;-83
2022/10/17 06:22:01;;;;;;;;;;;14.00;99.90;;;;;;5040992;28;19921;-83
2022/10/17 06:24:26;;;;;;;;;;;14.00;99.90;;;;;;5046191;28;20403;-85
2022/10/17 06:26:52;;;;;;;;;;;13.90;99.90;;;;;;5044035;28;19978;-84
2022/10/17 06:29:18;;;;;;;;;;;14.00;99.90;;;;;;5042923;28;19940;-80
2022/10/17 06:31:46;;;;;;;;;;;14.00;99.90;;;;;;5042619;28;20331;-74
2022/10/17 06:34:11;;;;;;;;;;;14.00;99.90;;;;;;5044115;28;19979;-77
2022/10/17 06:36:37;;;;;;;;;;;14.00;99.90;;;;;;5042722;28;19929;-71
2022/10/17 06:39:02;;;;;;;;;;;14.00;99.90;;;;;;5072138;28;20373;-71
2022/10/17 06:41:28;;;;;;;;;;;14.00;99.90;;;;;;5038668;28;20376;-71
2022/10/17 06:43:54;;;;;;;;;;;14.10;99.90;;;;;;5043229;28;19951;-70
2022/10/17 06:46:19;;;;;;;;;;;14.10;99.90;;;;;;5039809;28;19973;-70
2022/10/17 06:48:48;;;;;;;;;;;14.10;99.90;;;;;;5042766;28;20173;-70
2022/10/17 06:51:13;;;;;;;;;;;14.10;99.90;;;;;;5042837;28;19981;-70
2022/10/17 06:53:39;;;;;;;;;;;14.20;99.90;;;;;;5043888;28;20353;-70
2022/10/17 06:56:05;;;;;;;;;;;14.20;99.90;;;;;;5041264;28;19925;-70
2022/10/17 06:58:33;;;;;;;;;;;14.30;99.90;;;;;;5044350;28;19947;-69
2022/10/17 07:01:00;;;;;;;;;;;14.40;99.90;;;;;;5042487;28;19929;-70
2022/10/17 07:03:28;;;;;;;;;;;14.50;99.90;;;;;;5044315;28;19924;-70
2022/10/17 07:05:54;;;;;;;;;;;14.60;99.90;;;;;;5042121;28;20292;-70
2022/10/17 07:08:20;;;;;;;;;;;14.70;99.90;;;;;;5043474;28;19931;-70
2022/10/17 07:10:46;;;;;;;;;;;14.80;99.90;;;;;;5040904;28;20004;-71
2022/10/17 07:13:11;;;;;;;;;;;14.90;99.90;;;;;;5044804;28;20503;-70
2022/10/17 07:15:37;;;;;;;;;;;15.00;99.90;;;;;;5041540;28;19929;-71
2022/10/17 07:18:03;;;;;;;;;;;15.10;99.90;;;;;;5043726;28;19925;-71
2022/10/17 07:20:32;;;;;;;;;;;15.20;99.90;;;;;;5042315;28;19995;-69
2022/10/17 07:22:57;;;;;;;;;;;15.20;99.90;;;;;;5039869;28;19937;-70
2022/10/17 07:25:23;;;;;;;;;;;15.20;99.90;;;;;;5042600;28;19924;-70
2022/10/17 07:27:49;;;;;;;;;;;15.30;99.90;;;;;;5040397;28;19971;-71
2022/10/17 07:30:15;;;;;;;;;;;15.30;99.90;;;;;;5044933;28;19929;-71
2022/10/17 07:32:41;;;;;;;;;;;15.40;99.90;;;;;;5044383;28;19921;-71
2022/10/17 07:35:06;;;;;;;;;;;15.50;99.90;;;;;;5041188;28;19953;-69
2022/10/17 07:37:32;;;;;;;;;;;15.70;99.90;;;;;;5043367;28;19924;-70
2022/10/17 07:40:00;;;;;;;;;;;15.70;99.90;;;;;;5043220;28;20035;-70
2022/10/17 07:42:27;;;;;;;;;;;15.80;99.90;;;;;;5047662;28;19982;-70
2022/10/17 07:44:53;;;;;;;;;;;15.90;99.90;;;;;;5040868;28;19932;-71
2022/10/17 07:47:18;;;;;;;;;;;16.00;99.90;;;;;;5042982;28;19924;-71
2022/10/17 07:49:44;;;;;;;;;;;16.10;99.90;;;;;;5040343;28;19925;-70
2022/10/17 07:52:10;;;;;;;;;;;16.20;99.90;;;;;;5044639;28;20009;-70
2022/10/17 07:54:36;;;;;;;;;;;16.30;99.90;;;;;;5039680;28;19983;-74
2022/10/17 07:57:02;;;;;;;;;;;16.30;99.90;;;;;;5048776;28;19929;-70
2022/10/17 07:59:27;;;;;;;;;;;16.40;99.90;;;;;;5051867;28;19970;-70
2022/10/17 08:01:55;;;;;;;;;;;16.40;99.90;;;;;;5046570;28;19982;-67
2022/10/17 08:04:22;;;;;;;;;;;16.40;99.90;;;;;;5038884;28;19932;-69
2022/10/17 08:06:48;;;;;;;;;;;16.40;99.90;;;;;;5044407;28;19924;-68
2022/10/17 08:09:16;;;;;;;;;;;16.40;99.90;;;;;;5044355;28;19947;-69
2022/10/17 08:11:44;;;;;;;;;;;16.30;99.90;;;;;;5045359;28;20011;-66
2022/10/17 08:14:10;;;;;;;;;;;16.30;99.90;;;;;;5043596;28;19925;-67
2022/10/17 08:16:36;;;;;;;;;;;16.30;99.90;;;;;;5040580;28;20439;-68
2022/10/17 08:19:02;;;;;;;;;;;16.40;99.90;;;;;;5038485;28;20397;-66
2022/10/17 08:21:28;;;;;;;;;;;16.30;99.90;;;;;;5049200;28;19929;-67
2022/10/17 08:23:54;;;;;;;;;;;16.30;99.90;;;;;;5039393;28;19925;-68
2022/10/17 08:26:19;;;;;;;;;;;16.30;99.90;;;;;;5044786;28;20289;-67
2022/10/17 08:28:45;;;;;;;;;;;16.30;99.90;;;;;;5041894;28;19932;-67
2022/10/17 08:31:12;;;;;;;;;;;16.40;99.90;;;;;;5043785;28;20027;-67
2022/10/17 08:33:38;;;;;;;;;;;16.50;99.90;;;;;;5044385;28;19924;-67
2022/10/17 08:36:04;;;;;;;;;;;16.40;99.90;;;;;;5069519;28;20344;-66
2022/10/17 08:38:30;;;;;;;;;;;16.40;99.90;;;;;;5042829;28;19928;-66
2022/10/17 08:40:58;;;;;;;;;;;16.30;99.90;;;;;;5038936;28;19960;-67
2022/10/17 08:43:31;;;;;;;;;;;16.40;99.90;;;;;;5042161;28;19947;-68
2022/10/17 08:46:01;;;;;;;;;;;16.50;99.90;;;;;;5043331;28;20008;-69
2022/10/17 08:48:28;;;;;;;;;;;16.40;99.90;;;;;;5041592;28;19925;-68
2022/10/17 08:50:54;;;;;;;;;;;16.50;99.90;;;;;;5043681;28;19937;-69
2022/10/17 08:53:25;;;;;;;;;;;16.40;99.90;;;;;;5041805;28;20008;-70
2022/10/17 08:55:52;;;;;;;;;;;16.40;99.90;;;;;;5041823;28;19994;-70
2022/10/17 08:58:17;;;;;;;;;;;16.40;99.90;;;;;;5040707;28;19925;-70
2022/10/17 09:00:48;;;;;;;;;;;16.30;99.90;;;;;;5046818;28;19978;-71
2022/10/17 09:03:28;;;;;;;;;;;16.30;99.90;;;;;;5048169;28;20411;-71
2022/10/17 09:05:58;;;;;;;;;;;16.30;99.90;;;;;;5045214;28;19936;-70
2022/10/17 09:08:31;;;;;;;;;;;16.10;99.90;;;;;;5045676;28;19925;-71
2022/10/17 09:11:06;;;;;;;;;;;16.20;99.90;;;;;;5078935;28;19925;-70
2022/10/17 09:13:50;;;;;;;;;;;16.20;99.90;;;;;;5050121;28;19933;-71
2022/10/17 09:16:22;;;;;;;;;;;16.20;99.90;;;;;;5047013;28;20365;-71
2022/10/17 09:19:25;;;;;;;;;;;16.20;99.90;;;;;;5049128;28;19931;-71
2022/10/17 09:21:57;;;;;;;;;;;16.10;99.90;;;;;;5005298;28;19933;-71
2022/10/17 09:24:32;;;;;;;;;;;16.10;99.90;;;;;;5024352;28;20388;-71
2022/10/17 09:26:58;;;;;;;;;;;16.10;99.90;;;;;;5038724;28;19925;-71
2022/10/17 09:29:30;;;;;;;;;;;16.10;99.90;;;;;;5048367;28;19932;-71
2022/10/17 09:32:03;;;;;;;;;;;16.10;99.90;;;;;;5046391;28;19929;-71
2022/10/17 09:34:30;;;;;;;;;;;16.00;99.90;;;;;;5045916;28;19928;-71
2022/10/17 09:36:57;;;;;;;;;;;16.00;99.90;;;;;;5047007;28;20233;-71
2022/10/17 09:39:25;;;;;;;;;;;15.90;99.90;;;;;;5046607;28;19933;-70
2022/10/17 09:41:55;;;;;;;;;;;16.00;99.90;;;;;;5041643;28;19929;-71
2022/10/17 09:44:21;;;;;;;;;;;16.00;99.90;;;;;;5046534;28;20368;-71
2022/10/17 09:46:52;;;;;;;;;;;15.90;99.90;;;;;;5053846;28;19947;-71
2022/10/17 09:49:21;;;;;;;;;;;15.90;99.90;;;;;;5051226;28;19925;-71
2022/10/17 09:51:46;;;;;;;;;;;15.90;99.90;;;;;;5046951;28;19933;-71
2022/10/17 09:54:20;;;;;;;;;;;15.90;99.90;;;;;;5045193;28;19971;-71
2022/10/17 09:57:15;;;;;;;;;;;16.00;99.90;;;;;;5063452;28;19964;-71
2022/10/17 09:59:43;;;;;;;;;;;16.00;99.90;;;;;;5041090;28;19925;-71
2022/10/17 10:02:11;;;;;;;;;;;16.00;99.90;;;;;;5045167;28;19925;-71
2022/10/17 10:04:56;;;;;;;;;;;16.00;99.90;;;;;;5045029;28;20362;-71
2022/10/17 10:07:22;;;;;;;;;;;16.00;99.90;;;;;;5040428;28;19968;-73
2022/10/17 10:09:48;;;;;;;;;;;16.00;99.90;;;;;;5045574;28;19936;-72
2022/10/17 10:12:40;;;;;;;;;;;16.10;99.90;;;;;;5042014;28;19948;-72
2022/10/17 10:15:26;;;;;;;;;;;16.00;99.90;;;;;;5045986;28;19968;-71
2022/10/17 10:17:52;;;;;;;;;;;16.00;99.90;;;;;;5036990;28;19965;-72
2022/10/17 10:20:34;;;;;;;;;;;16.00;99.90;;;;;;5046003;28;19972;-71
2022/10/17 10:23:10;;;;;;;;;;;16.00;99.90;;;;;;5046678;28;19924;-71
2022/10/17 10:25:35;;;;;;;;;;;16.00;99.90;;;;;;5045040;28;19925;-71
2022/10/17 10:28:01;;;;;;;;;;;16.00;99.90;;;;;;5080331;28;20451;-71
2022/10/17 10:30:29;;;;;;;;;;;16.00;99.90;;;;;;5047138;28;20402;-72
2022/10/17 10:32:55;;;;;;;;;;;16.00;99.90;;;;;;5041974;28;20307;-71
2022/10/17 10:35:23;;;;;;;;;;;16.10;99.90;;;;;;5044721;28;20388;-72
2022/10/17 10:37:49;;;;;;;;;;;16.10;99.90;;;;;;5040746;28;19925;-72
2022/10/17 10:40:16;;;;;;;;;;;16.10;99.90;;;;;;5043664;28;20371;-72
2022/10/17 10:42:45;;;;;;;;;;;16.10;99.90;;;;;;5046195;28;19967;-72
2022/10/17 10:45:15;;;;;;;;;;;16.10;99.90;;;;;;5041610;28;19925;-72
2022/10/17 10:47:51;;;;;;;;;;;16.20;99.90;;;;;;5046095;28;19924;-72
2022/10/17 10:50:25;;;;;;;;;;;16.30;99.90;;;;;;5044456;28;20381;-72
2022/10/17 10:52:55;;;;;;;;;;;16.30;99.90;;;;;;5041172;28;20304;-72
2022/10/17 10:55:41;;;;;;;;;;;16.30;99.90;;;;;;5042166;28;19924;-72
2022/10/17 10:58:16;;;;;;;;;;;16.30;99.90;;;;;;5041837;28;20285;-72
2022/10/17 11:00:41;;;;;;;;;;;16.30;99.90;;;;;;5043805;28;20369;-72
2022/10/17 11:03:15;;;;;;;;;;;16.30;99.90;;;;;;5041574;28;19925;-72
2022/10/17 11:05:42;;;;;;;;;;;16.30;99.90;;;;;;5041622;28;19925;-72
2022/10/17 11:08:17;;;;;;;;;;;16.40;99.90;;;;;;5041200;28;19925;-72
2022/10/17 11:11:00;;;;;;;;;;;16.30;99.90;;;;;;5044745;28;19927;-72
2022/10/17 11:13:33;;;;;;;;;;;16.30;99.90;;;;;;5041632;28;19929;-71
2022/10/17 11:16:03;;;;;;;;;;;16.30;99.90;;;;;;5044033;28;20020;-72
2022/10/17 11:18:32;;;;;;;;;;;16.30;99.90;;;;;;5040904;28;19951;-71
2022/10/17 11:21:01;;;;;;;;;;;16.40;99.90;;;;;;5041924;28;19921;-72
2022/10/17 11:23:37;;;;;;;;;;;16.40;99.90;;;;;;5041837;28;19926;-73
2022/10/17 11:26:05;;;;;;;;;;;16.50;99.90;;;;;;5043809;28;19932;-72
2022/10/17 11:28:31;;;;;;;;;;;16.60;99.90;;;;;;5040702;28;19925;-73
2022/10/17 11:31:06;;;;;;;;;;;16.70;99.90;;;;;;5043214;28;19932;-73
2022/10/17 11:33:50;;;;;;;;;;;16.70;99.90;;;;;;5040010;28;19967;-73
2022/10/17 11:36:18;;;;;;;;;;;16.70;99.90;;;;;;5046787;28;19973;-73
2022/10/17 11:38:49;;;;;;;;;;;16.70;99.90;;;;;;5042418;28;21375;-72
2022/10/17 11:41:25;;;;;;;;;;;16.60;99.90;;;;;;5040604;28;19924;-71
2022/10/17 11:43:58;;;;;;;;;;;16.60;99.90;;;;;;5042059;28;19940;-72
2022/10/17 11:46:25;;;;;;;;;;;16.50;99.90;;;;;;5037854;28;20392;-72
2022/10/17 11:48:57;;;;;;;;;;;16.60;99.90;;;;;;5051277;28;19929;-72
2022/10/17 11:51:23;;;;;;;;;;;16.50;99.90;;;;;;5046899;28;19924;-73
2022/10/17 11:53:53;;;;;;;;;;;16.60;99.90;;;;;;5049115;28;19995;-73
2022/10/17 11:56:39;;;;;;;;;;;16.50;99.90;;;;;;5054572;28;19932;-74
2022/10/17 11:59:17;;;;;;;;;;;16.50;99.90;;;;;;5051424;28;19939;-71
2022/10/17 12:01:45;;;;;;;;;;;16.40;99.90;;;;;;5040219;28;19926;-73
2022/10/17 12:04:12;;;;;;;;;;;16.40;99.90;;;;;;5047879;28;19932;-73
2022/10/17 12:06:48;;;;;;;;;;;16.30;99.90;;;;;;5044535;28;19947;-72
2022/10/17 12:09:13;;;;;;;;;;;16.30;99.90;;;;;;5040156;28;19925;-72
2022/10/17 12:11:44;;;;;;;;;;;16.30;99.90;;;;;;5042204;28;19929;-72
2022/10/17 12:14:28;;;;;;;;;;;16.30;99.90;;;;;;5045094;28;19924;-72
2022/10/17 12:16:54;;;;;;;;;;;16.30;99.90;;;;;;5042538;28;19952;-72
2022/10/17 12:19:21;;;;;;;;;;;16.30;99.90;;;;;;5042951;28;20316;-72
2022/10/17 12:22:05;;;;;;;;;;;16.30;99.90;;;;;;5043374;28;19925;-72
2022/10/17 12:24:41;;;;;;;;;;;16.30;99.90;;;;;;5043252;28;19978;-71
2022/10/17 12:27:26;;;;;;;;;;;16.20;99.90;;;;;;5039470;28;19929;-72
2022/10/17 12:29:59;;;;;;;;;;;16.20;99.90;;;;;;5040833;28;19925;-72
2022/10/17 12:32:25;;;;;;;;;;;16.30;99.90;;;;;;5041855;28;19925;-72
2022/10/17 12:34:54;;;;;;;;;;;16.30;99.90;;;;;;5038330;28;19932;-72
2022/10/17 12:37:38;;;;;;;;;;;16.40;99.90;;;;;;5041278;28;19925;-73
2022/10/17 12:40:24;;;;;;;;;;;16.50;99.90;;;;;;5044426;28;19944;-73
2022/10/17 12:42:52;;;;;;;;;;;16.50;99.90;;;;;;5044303;28;19932;-72
2022/10/17 12:45:37;;;;;;;;;;;16.60;99.90;;;;;;5038713;28;19925;-72
2022/10/17 12:48:02;;;;;;;;;;;16.70;99.90;;;;;;5043236;28;20047;-71
2022/10/17 12:50:51;;;;;;;;;;;16.80;99.90;;;;;;5039269;28;20015;-72
2022/10/17 12:53:18;;;;;;;;;;;16.80;99.90;;;;;;5040852;28;19929;-73
2022/10/17 12:55:43;;;;;;;;;;;16.70;99.90;;;;;;5040815;28;19933;-72
2022/10/17 12:58:15;;;;;;;;;;;16.80;99.90;;;;;;5041536;28;19971;-72
2022/10/17 13:00:43;;;;;;;;;;;16.60;99.90;;;;;;5038644;28;19929;-72
2022/10/17 13:03:14;;;;;;;;;;;16.70;99.90;;;;;;5041400;28;19928;-72
2022/10/17 13:05:41;;;;;;;;;;;16.60;99.90;;;;;;5040018;28;19932;-72
2022/10/17 13:08:13;;;;;;;;;;;16.60;99.90;;;;;;5040073;28;20015;-72
2022/10/17 13:10:38;;;;;;;;;;;16.60;99.90;;;;;;5039421;28;19932;-72
2022/10/17 13:13:15;;;;;;;;;;;16.70;99.90;;;;;;5040392;28;19925;-72
2022/10/17 13:15:45;;;;;;;;;;;16.70;99.90;;;;;;5042575;28;19931;-72
2022/10/17 13:18:15;;;;;;;;;;;16.80;99.90;;;;;;5039435;28;19925;-72
2022/10/17 13:20:41;;;;;;;;;;;16.70;99.90;;;;;;5040211;28;19946;-73
2022/10/17 13:23:20;;;;;;;;;;;16.80;99.90;;;;;;5041610;28;20444;-73
2022/10/17 13:25:46;;;;;;;;;;;16.60;99.90;;;;;;5049557;28;20067;-74
2022/10/17 13:28:12;;;;;;;;;;;16.70;99.90;;;;;;5042591;28;19997;-75
2022/10/17 13:30:38;;;;;;;;;;;16.70;99.90;;;;;;5039794;28;19939;-76
2022/10/17 13:33:17;;;;;;;;;;;16.60;99.90;;;;;;5040420;28;19925;-71
2022/10/17 13:35:42;;;;;;;;;;;16.70;99.90;;;;;;5037757;28;20437;-71
2022/10/17 13:38:13;;;;;;;;;;;16.60;99.90;;;;;;5041695;28;19972;-72
2022/10/17 13:40:42;;;;;;;;;;;16.60;99.90;;;;;;5044304;28;19931;-73
2022/10/17 13:43:13;;;;;;;;;;;16.60;99.90;;;;;;5047690;28;20563;-72
2022/10/17 13:45:43;;;;;;;;;;;16.60;99.90;;;;;;5047063;28;19932;-72
2022/10/17 13:48:16;;;;;;;;;;;16.70;99.90;;;;;;5061935;28;19932;-72
2022/10/17 13:50:42;;;;;;;;;;;16.70;99.90;;;;;;5043436;28;19932;-72
2022/10/17 13:53:19;;;;;;;;;;;16.70;99.90;;;;;;5046692;28;19925;-72
2022/10/17 13:56:03;;;;;;;;;;;16.80;99.90;;;;;;5045053;28;19932;-71
2022/10/17 13:58:43;;;;;;;;;;;16.70;99.90;;;;;;5044918;28;19924;-73
2022/10/17 14:01:13;;;;;;;;;;;16.90;99.90;;;;;;5042055;28;20435;-71
2022/10/17 14:03:42;;;;;;;;;;;16.80;99.90;;;;;;5043915;28;20346;-73
2022/10/17 14:06:10;;;;;;;;;;;16.80;99.90;;;;;;5041664;28;19925;-73
2022/10/17 14:08:36;;;;;;;;;;;16.80;99.90;;;;;;5044690;28;19966;-72
2022/10/17 14:11:11;;;;;;;;;;;16.80;99.90;;;;;;5042740;28;19932;-72
2022/10/17 14:13:37;;;;;;;;;;;16.80;99.90;;;;;;5041221;28;19929;-72
2022/10/17 14:16:03;;;;;;;;;;;16.90;99.90;;;;;;5044071;28;20300;-71
2022/10/17 14:18:34;;;;;;;;;;;16.80;99.90;;;;;;5041760;28;19929;-71
2022/10/17 14:21:00;;;;;;;;;;;16.90;99.90;;;;;;5045725;28;19933;-72
2022/10/17 14:23:30;;;;;;;;;;;16.90;99.90;;;;;;5042757;28;19932;-73
2022/10/17 14:26:09;;;;;;;;;;;16.80;99.90;;;;;;5053019;28;19925;-71